createdAt,value
2017-03-20T00:00:58.755Z,23.2
2017-03-20T00:02:06.844Z,23.1
2017-03-20T00:03:14.932Z,23.2
2017-03-20T00:04:23.019Z,23.1
2017-03-20T00:05:31.104Z,23.2
2017-03-20T00:06:39.200Z,23.1
2017-03-20T00:07:47.294Z,23.2
2017-03-20T00:08:55.373Z,23.2
2017-03-20T00:10:03.461Z,23.1
2017-03-20T00:11:11.551Z,23.1
2017-03-20T00:12:19.637Z,23.1
2017-03-20T00:13:27.728Z,23.2
2017-03-20T00:14:35.819Z,23.2
2017-03-20T00:15:43.910Z,23.2
2017-03-20T00:16:51.995Z,23.2
2017-03-20T00:18:00.087Z,23.2
2017-03-20T00:19:08.176Z,23.2
2017-03-20T00:20:16.262Z,23.2
2017-03-20T00:21:24.347Z,23.2
2017-03-20T00:22:32.438Z,23.2
2017-03-20T00:23:40.526Z,23.1
2017-03-20T00:24:48.613Z,23.2
2017-03-20T00:25:56.701Z,23.1
2017-03-20T00:27:04.791Z,23.1
2017-03-20T00:28:12.875Z,23.1
2017-03-20T00:29:20.963Z,23.1
2017-03-20T00:30:29.052Z,23.1
2017-03-20T00:31:37.150Z,23.1
2017-03-20T00:32:45.237Z,23.0
2017-03-20T00:33:53.335Z,23.1
2017-03-20T00:35:01.418Z,23.1
2017-03-20T00:36:09.509Z,23.2
2017-03-20T00:37:17.639Z,23.1
2017-03-20T00:38:25.683Z,23.1
2017-03-20T00:39:33.770Z,23.1
2017-03-20T00:40:41.853Z,23.1
2017-03-20T00:41:49.948Z,23.0
2017-03-20T00:42:58.036Z,23.1
2017-03-20T00:44:06.128Z,23.1
2017-03-20T00:45:14.214Z,23.1
2017-03-20T00:46:22.303Z,23.1
2017-03-20T00:47:30.391Z,23.1
2017-03-20T00:48:38.477Z,23.1
2017-03-20T00:49:46.565Z,23.0
2017-03-20T00:50:54.652Z,23.0
2017-03-20T00:52:02.733Z,23.1
2017-03-20T00:53:10.824Z,23.1
2017-03-20T00:54:18.917Z,23.1
2017-03-20T00:55:27.000Z,23.1
2017-03-20T00:56:35.083Z,23.0
2017-03-20T00:57:43.178Z,22.9
2017-03-20T00:58:51.264Z,23.0
2017-03-20T00:59:59.355Z,23.0
2017-03-20T01:01:07.438Z,23.0
2017-03-20T01:02:15.535Z,22.9
2017-03-20T01:03:23.617Z,23.0
2017-03-20T01:04:31.696Z,23.0
2017-03-20T01:05:39.788Z,22.9
2017-03-20T01:06:47.875Z,23.0
2017-03-20T01:07:55.961Z,23.0
2017-03-20T01:09:04.050Z,22.9
2017-03-20T01:10:12.138Z,22.9
2017-03-20T01:11:20.226Z,22.9
2017-03-20T01:12:28.310Z,22.9
2017-03-20T01:13:36.398Z,23.0
2017-03-20T01:14:44.485Z,22.9
2017-03-20T01:15:52.569Z,23.0
2017-03-20T01:17:00.663Z,22.9
2017-03-20T01:18:08.754Z,22.9
2017-03-20T01:19:16.838Z,22.9
2017-03-20T01:20:24.924Z,22.9
2017-03-20T01:21:33.015Z,22.8
2017-03-20T01:22:41.110Z,22.9
2017-03-20T01:23:49.189Z,22.9
2017-03-20T01:24:57.280Z,22.8
2017-03-20T01:26:05.366Z,22.9
2017-03-20T01:27:13.454Z,22.9
2017-03-20T01:28:21.540Z,22.9
2017-03-20T01:29:29.631Z,22.9
2017-03-20T01:30:37.720Z,22.9
2017-03-20T01:31:45.803Z,22.8
2017-03-20T01:32:53.895Z,22.9
2017-03-20T01:34:01.983Z,22.8
2017-03-20T01:35:10.069Z,22.9
2017-03-20T01:36:18.155Z,22.8
2017-03-20T01:37:26.249Z,22.8
2017-03-20T01:38:34.340Z,22.8
2017-03-20T01:39:42.423Z,22.8
2017-03-20T01:40:50.511Z,22.8
2017-03-20T01:41:58.601Z,22.8
2017-03-20T01:43:06.685Z,22.8
2017-03-20T01:44:14.774Z,22.8
2017-03-20T01:45:22.863Z,22.8
2017-03-20T01:46:30.949Z,22.7
2017-03-20T01:47:39.038Z,22.8
2017-03-20T01:48:47.137Z,22.8
2017-03-20T01:49:55.213Z,22.8
2017-03-20T01:51:03.298Z,22.9
2017-03-20T01:52:11.382Z,22.7
2017-03-20T01:53:19.475Z,22.8
2017-03-20T01:54:27.559Z,22.7
2017-03-20T01:55:35.646Z,22.7
2017-03-20T01:56:43.737Z,22.7
2017-03-20T01:57:51.826Z,22.7
2017-03-20T01:58:59.912Z,22.8
2017-03-20T02:00:07.993Z,22.8
2017-03-20T02:01:16.080Z,22.7
2017-03-20T02:02:24.174Z,22.7
2017-03-20T02:03:32.256Z,22.6
2017-03-20T02:04:40.345Z,22.6
2017-03-20T02:05:48.440Z,22.6
2017-03-20T02:06:56.518Z,22.7
2017-03-20T02:08:04.610Z,22.7
2017-03-20T02:09:12.698Z,22.7
2017-03-20T02:10:20.788Z,22.6
2017-03-20T02:11:28.872Z,22.7
2017-03-20T02:12:36.961Z,22.6
2017-03-20T02:13:45.051Z,22.6
2017-03-20T02:14:53.137Z,22.6
2017-03-20T02:16:01.228Z,22.6
2017-03-20T02:17:09.315Z,22.6
2017-03-20T02:18:17.406Z,22.6
2017-03-20T02:19:25.494Z,22.6
2017-03-20T02:20:33.583Z,22.6
2017-03-20T02:21:41.669Z,22.6
2017-03-20T02:22:49.756Z,22.6
2017-03-20T02:23:57.850Z,22.5
2017-03-20T02:25:05.942Z,22.6
2017-03-20T02:26:14.056Z,22.5
2017-03-20T02:27:22.109Z,22.5
2017-03-20T02:28:30.196Z,22.6
2017-03-20T02:29:38.285Z,22.5
2017-03-20T02:30:46.367Z,22.5
2017-03-20T02:31:54.463Z,22.5
2017-03-20T02:33:02.554Z,22.6
2017-03-20T02:34:10.641Z,22.5
2017-03-20T02:35:18.725Z,22.6
2017-03-20T02:36:26.817Z,22.5
2017-03-20T02:37:34.906Z,22.6
2017-03-20T02:38:42.987Z,22.4
2017-03-20T02:39:51.076Z,22.5
2017-03-20T02:40:59.163Z,22.5
2017-03-20T02:42:07.245Z,22.4
2017-03-20T02:43:15.333Z,22.5
2017-03-20T02:44:23.432Z,22.5
2017-03-20T02:45:31.517Z,22.4
2017-03-20T02:46:39.602Z,22.4
2017-03-20T02:47:47.693Z,22.4
2017-03-20T02:48:55.780Z,22.4
2017-03-20T02:50:03.870Z,22.4
2017-03-20T02:51:11.948Z,22.4
2017-03-20T02:52:20.040Z,22.4
2017-03-20T02:53:28.128Z,22.4
2017-03-20T02:54:36.214Z,22.4
2017-03-20T02:55:44.306Z,22.3
2017-03-20T02:56:52.395Z,22.3
2017-03-20T02:58:00.483Z,22.3
2017-03-20T02:59:08.566Z,22.3
2017-03-20T03:00:16.657Z,22.3
2017-03-20T03:01:24.742Z,22.3
2017-03-20T03:02:32.829Z,22.2
2017-03-20T03:03:40.920Z,22.3
2017-03-20T03:04:49.006Z,22.3
2017-03-20T03:05:57.138Z,22.3
2017-03-20T03:07:05.178Z,22.3
2017-03-20T03:08:13.279Z,22.2
2017-03-20T03:09:21.361Z,22.3
2017-03-20T03:10:29.441Z,22.3
2017-03-20T03:11:37.539Z,22.2
2017-03-20T03:12:45.630Z,22.2
2017-03-20T03:13:53.712Z,22.2
2017-03-20T03:15:01.795Z,22.2
2017-03-20T03:16:09.887Z,22.2
2017-03-20T03:17:17.969Z,22.2
2017-03-20T03:18:26.058Z,22.1
2017-03-20T03:19:34.152Z,22.2
2017-03-20T03:20:42.231Z,22.1
2017-03-20T03:21:50.317Z,22.1
2017-03-20T03:22:58.426Z,22.0
2017-03-20T03:24:06.490Z,22.1
2017-03-20T03:25:14.577Z,22.2
2017-03-20T03:26:22.665Z,22.1
2017-03-20T03:27:30.752Z,22.1
2017-03-20T03:28:38.838Z,22.1
2017-03-20T03:29:46.921Z,22.1
2017-03-20T03:30:55.010Z,22.1
2017-03-20T03:32:03.096Z,22.1
2017-03-20T03:33:11.182Z,22.0
2017-03-20T03:34:19.299Z,22.0
2017-03-20T03:35:27.355Z,22.0
2017-03-20T03:36:35.444Z,22.1
2017-03-20T03:37:43.529Z,22.1
2017-03-20T03:38:51.615Z,22.0
2017-03-20T03:39:59.707Z,22.0
2017-03-20T03:41:07.790Z,22.0
2017-03-20T03:42:15.870Z,22.0
2017-03-20T03:43:23.964Z,22.0
2017-03-20T03:44:32.050Z,21.9
2017-03-20T03:45:40.132Z,22.0
2017-03-20T03:46:48.222Z,21.9
2017-03-20T03:47:56.308Z,22.0
2017-03-20T03:49:04.393Z,21.9
2017-03-20T03:50:12.478Z,21.9
2017-03-20T03:51:20.574Z,21.9
2017-03-20T03:52:28.654Z,21.9
2017-03-20T03:53:36.739Z,21.9
2017-03-20T03:54:44.835Z,21.9
2017-03-20T03:55:52.914Z,21.9
2017-03-20T03:57:01.000Z,21.9
2017-03-20T03:58:09.084Z,21.9
2017-03-20T03:59:17.173Z,21.9
2017-03-20T04:00:25.259Z,21.8
2017-03-20T04:01:33.350Z,21.8
2017-03-20T04:02:41.433Z,21.8
2017-03-20T04:03:49.520Z,21.8
2017-03-20T04:04:57.609Z,21.8
2017-03-20T04:06:05.693Z,21.8
2017-03-20T04:07:13.788Z,21.8
2017-03-20T04:08:21.874Z,21.7
2017-03-20T04:09:29.959Z,21.7
2017-03-20T04:10:38.047Z,21.7
2017-03-20T04:11:46.134Z,21.7
2017-03-20T04:12:54.221Z,21.8
2017-03-20T04:14:02.302Z,21.8
2017-03-20T04:15:10.394Z,21.7
2017-03-20T04:16:18.480Z,21.7
2017-03-20T04:17:26.568Z,21.8
2017-03-20T04:18:34.657Z,21.7
2017-03-20T04:19:42.745Z,21.7
2017-03-20T04:20:50.826Z,21.7
2017-03-20T04:21:58.914Z,21.7
2017-03-20T04:23:07.003Z,21.7
2017-03-20T04:24:15.094Z,21.7
2017-03-20T04:25:23.182Z,21.6
2017-03-20T04:26:31.268Z,21.6
2017-03-20T04:27:39.354Z,21.6
2017-03-20T04:28:47.439Z,21.5
2017-03-20T04:29:55.524Z,21.8
2017-03-20T04:31:03.615Z,21.7
2017-03-20T04:32:11.702Z,21.6
2017-03-20T04:33:19.788Z,21.7
2017-03-20T04:34:27.876Z,21.5
2017-03-20T04:35:35.965Z,21.6
2017-03-20T04:36:44.053Z,21.6
2017-03-20T04:37:52.137Z,21.7
2017-03-20T04:39:00.222Z,21.6
2017-03-20T04:40:08.310Z,21.7
2017-03-20T04:41:16.396Z,21.6
2017-03-20T04:42:24.487Z,21.6
2017-03-20T04:43:32.579Z,21.5
2017-03-20T04:44:40.661Z,21.6
2017-03-20T04:45:48.748Z,21.5
2017-03-20T04:46:56.835Z,21.7
2017-03-20T04:48:04.924Z,21.5
2017-03-20T04:49:13.006Z,21.5
2017-03-20T04:50:21.097Z,21.5
2017-03-20T04:51:29.179Z,21.5
2017-03-20T04:52:37.267Z,21.5
2017-03-20T04:53:45.358Z,21.5
2017-03-20T04:54:53.443Z,21.5
2017-03-20T04:56:01.528Z,21.4
2017-03-20T04:57:09.614Z,21.5
2017-03-20T04:58:17.708Z,21.4
2017-03-20T04:59:25.793Z,21.4
2017-03-20T05:00:33.879Z,21.4
2017-03-20T05:01:41.964Z,21.4
2017-03-20T05:02:50.063Z,21.4
2017-03-20T05:03:58.147Z,21.4
2017-03-20T05:05:06.230Z,21.4
2017-03-20T05:06:14.319Z,21.4
2017-03-20T05:07:22.404Z,21.4
2017-03-20T05:08:30.487Z,21.4
2017-03-20T05:09:38.580Z,21.4
2017-03-20T05:10:46.666Z,21.3
2017-03-20T05:11:54.753Z,21.3
2017-03-20T05:13:02.837Z,21.3
2017-03-20T05:14:10.927Z,21.4
2017-03-20T05:15:19.017Z,21.3
2017-03-20T05:16:27.097Z,21.3
2017-03-20T05:17:35.187Z,21.3
2017-03-20T05:18:43.272Z,21.3
2017-03-20T05:19:51.357Z,21.3
2017-03-20T05:20:59.443Z,21.3
2017-03-20T05:22:07.529Z,21.3
2017-03-20T05:23:15.620Z,21.3
2017-03-20T05:24:23.705Z,21.2
2017-03-20T05:25:31.792Z,21.2
2017-03-20T05:26:39.876Z,21.3
2017-03-20T05:27:47.958Z,21.2
2017-03-20T05:28:56.048Z,21.2
2017-03-20T05:30:04.133Z,21.2
2017-03-20T05:31:12.218Z,21.2
2017-03-20T05:32:20.306Z,21.1
2017-03-20T05:33:28.393Z,21.1
2017-03-20T05:34:36.480Z,21.2
2017-03-20T05:35:44.573Z,21.2
2017-03-20T05:36:52.652Z,21.1
2017-03-20T05:38:00.748Z,21.1
2017-03-20T05:39:08.834Z,21.2
2017-03-20T05:40:16.926Z,21.2
2017-03-20T05:41:25.012Z,21.2
2017-03-20T05:42:33.648Z,21.2
2017-03-20T05:43:41.180Z,21.2
2017-03-20T05:44:49.269Z,21.1
2017-03-20T05:45:58.000Z,21.1
2017-03-20T05:47:05.444Z,21.0
2017-03-20T05:48:13.528Z,21.0
2017-03-20T05:49:21.616Z,21.1
2017-03-20T05:50:30.060Z,21.0
2017-03-20T05:51:38.313Z,21.1
2017-03-20T05:52:45.875Z,21.1
2017-03-20T05:53:53.960Z,21.1
2017-03-20T05:55:02.297Z,21.1
2017-03-20T05:56:10.127Z,21.0
2017-03-20T05:57:18.217Z,21.1
2017-03-20T05:58:26.301Z,21.0
2017-03-20T05:59:34.401Z,21.1
2017-03-20T06:00:42.487Z,21.0
2017-03-20T06:01:50.575Z,21.0
2017-03-20T06:02:58.667Z,21.1
2017-03-20T06:04:06.742Z,21.0
2017-03-20T06:05:14.833Z,21.0
2017-03-20T06:06:22.916Z,21.1
2017-03-20T06:07:31.000Z,21.0
2017-03-20T06:08:39.176Z,21.0
2017-03-20T06:09:47.174Z,21.0
2017-03-20T06:10:55.260Z,21.0
2017-03-20T06:12:03.339Z,21.0
2017-03-20T06:13:11.428Z,21.1
2017-03-20T06:14:19.516Z,21.0
2017-03-20T06:15:27.598Z,21.0
2017-03-20T06:16:35.691Z,21.0
2017-03-20T06:17:43.772Z,21.0
2017-03-20T06:18:51.857Z,20.9
2017-03-20T06:19:59.942Z,20.9
2017-03-20T06:21:08.029Z,20.9
2017-03-20T06:22:16.117Z,20.9
2017-03-20T06:23:24.198Z,20.9
2017-03-20T06:24:32.291Z,20.9
2017-03-20T06:25:40.373Z,20.9
2017-03-20T06:26:48.461Z,20.9
2017-03-20T06:27:56.552Z,20.9
2017-03-20T06:29:04.638Z,20.9
2017-03-20T06:30:12.724Z,20.9
2017-03-20T06:31:20.809Z,20.9
2017-03-20T06:32:28.898Z,20.9
2017-03-20T06:33:36.987Z,20.9
2017-03-20T06:34:45.075Z,20.9
2017-03-20T06:35:53.155Z,20.9
2017-03-20T06:37:01.250Z,20.9
2017-03-20T06:38:09.333Z,20.9
2017-03-20T06:39:17.419Z,20.9
2017-03-20T06:40:26.301Z,20.9
2017-03-20T06:41:33.595Z,20.9
2017-03-20T06:42:41.675Z,20.9
2017-03-20T06:43:49.765Z,20.9
2017-03-20T06:44:57.852Z,20.9
2017-03-20T06:46:05.937Z,20.9
2017-03-20T06:47:14.018Z,20.8
2017-03-20T06:48:22.108Z,20.9
2017-03-20T06:49:30.194Z,20.8
2017-03-20T06:50:38.281Z,20.7
2017-03-20T06:51:46.376Z,20.9
2017-03-20T06:52:54.453Z,20.8
2017-03-20T06:54:02.541Z,20.8
2017-03-20T06:55:10.634Z,20.8
2017-03-20T06:56:18.729Z,20.8
2017-03-20T06:57:26.810Z,20.9
2017-03-20T06:58:34.897Z,20.8
2017-03-20T06:59:42.981Z,20.8
2017-03-20T07:00:51.067Z,20.8
2017-03-20T07:01:59.150Z,20.8
2017-03-20T07:03:07.236Z,20.8
2017-03-20T07:04:15.324Z,20.8
2017-03-20T07:05:23.405Z,20.9
2017-03-20T07:06:31.492Z,20.8
2017-03-20T07:07:39.581Z,20.8
2017-03-20T07:08:47.669Z,20.8
2017-03-20T07:09:55.758Z,20.8
2017-03-20T07:11:03.836Z,20.7
2017-03-20T07:12:11.932Z,20.8
2017-03-20T07:13:20.018Z,20.7
2017-03-20T07:14:28.100Z,20.7
2017-03-20T07:15:36.192Z,20.7
2017-03-20T07:16:44.276Z,20.7
2017-03-20T07:17:52.361Z,20.7
2017-03-20T07:19:00.447Z,20.7
2017-03-20T07:20:08.536Z,20.7
2017-03-20T07:21:16.620Z,20.7
2017-03-20T07:22:24.702Z,20.7
2017-03-20T07:23:32.789Z,20.7
2017-03-20T07:24:40.876Z,20.7
2017-03-20T07:25:48.967Z,20.7
2017-03-20T07:26:57.096Z,20.7
2017-03-20T07:28:05.146Z,20.7
2017-03-20T07:29:13.244Z,20.7
2017-03-20T07:30:21.328Z,20.7
2017-03-20T07:31:29.417Z,20.7
2017-03-20T07:32:37.512Z,20.7
2017-03-20T07:33:45.591Z,20.7
2017-03-20T07:34:53.679Z,20.7
2017-03-20T07:36:01.774Z,20.7
2017-03-20T07:37:09.855Z,20.6
2017-03-20T07:38:17.938Z,20.6
2017-03-20T07:39:26.033Z,20.6
2017-03-20T07:40:34.126Z,20.6
2017-03-20T07:41:42.209Z,20.6
2017-03-20T07:42:50.292Z,20.6
2017-03-20T07:43:58.379Z,20.5
2017-03-20T07:45:06.469Z,20.6
2017-03-20T07:46:14.551Z,20.6
2017-03-20T07:47:22.639Z,20.6
2017-03-20T07:48:30.726Z,20.5
2017-03-20T07:49:38.810Z,20.5
2017-03-20T07:50:46.918Z,20.5
2017-03-20T07:51:54.981Z,20.6
2017-03-20T07:53:03.063Z,20.6
2017-03-20T07:54:11.151Z,20.6
2017-03-20T07:55:19.240Z,20.5
2017-03-20T07:56:27.324Z,20.5
2017-03-20T07:57:35.442Z,20.5
2017-03-20T07:58:43.499Z,20.6
2017-03-20T07:59:51.588Z,20.6
2017-03-20T08:00:59.678Z,20.7
2017-03-20T08:02:07.762Z,20.5
2017-03-20T08:03:15.850Z,20.5
2017-03-20T08:04:23.936Z,20.5
2017-03-20T08:05:32.020Z,20.5
2017-03-20T08:06:40.110Z,20.5
2017-03-20T08:07:48.205Z,20.4
2017-03-20T08:08:56.286Z,20.4
2017-03-20T08:10:04.366Z,20.5
2017-03-20T08:11:12.457Z,20.5
2017-03-20T08:12:20.543Z,20.4
2017-03-20T08:13:28.628Z,20.5
2017-03-20T08:14:36.712Z,20.4
2017-03-20T08:15:44.798Z,20.4
2017-03-20T08:16:52.880Z,20.5
2017-03-20T08:18:00.971Z,20.5
2017-03-20T08:19:09.059Z,20.4
2017-03-20T08:20:17.145Z,20.4
2017-03-20T08:21:25.226Z,20.5
2017-03-20T08:22:33.317Z,20.5
2017-03-20T08:23:41.398Z,20.4
2017-03-20T08:24:49.485Z,20.4
2017-03-20T08:25:57.569Z,20.5
2017-03-20T08:27:05.656Z,20.4
2017-03-20T08:28:13.741Z,20.4
2017-03-20T08:29:21.832Z,20.4
2017-03-20T08:30:29.926Z,20.4
2017-03-20T08:31:38.011Z,20.5
2017-03-20T08:32:46.085Z,20.5
2017-03-20T08:33:54.173Z,20.5
2017-03-20T08:35:02.261Z,20.5
2017-03-20T08:36:10.351Z,20.4
2017-03-20T08:37:18.498Z,20.4
2017-03-20T08:38:26.521Z,20.4
2017-03-20T08:39:34.608Z,20.3
2017-03-20T08:40:42.698Z,20.3
2017-03-20T08:41:50.780Z,20.4
2017-03-20T08:42:58.871Z,20.3
2017-03-20T08:44:06.957Z,20.3
2017-03-20T08:45:15.040Z,20.4
2017-03-20T08:46:23.126Z,20.3
2017-03-20T08:47:31.213Z,20.4
2017-03-20T08:48:39.298Z,20.3
2017-03-20T08:49:47.379Z,20.4
2017-03-20T08:50:55.469Z,20.4
2017-03-20T08:52:03.551Z,20.3
2017-03-20T08:53:11.636Z,20.4
2017-03-20T08:54:19.764Z,20.3
2017-03-20T08:55:27.811Z,20.4
2017-03-20T08:56:35.893Z,20.4
2017-03-20T08:57:43.983Z,20.4
2017-03-20T08:58:52.066Z,20.4
2017-03-20T09:00:00.148Z,20.4
2017-03-20T09:01:08.231Z,20.4
2017-03-20T09:02:16.320Z,20.4
2017-03-20T09:03:24.407Z,20.3
2017-03-20T09:04:32.489Z,20.4
2017-03-20T09:05:40.577Z,20.3
2017-03-20T09:06:48.665Z,20.3
2017-03-20T09:07:56.747Z,20.2
2017-03-20T09:09:04.833Z,20.3
2017-03-20T09:10:12.927Z,20.4
2017-03-20T09:11:21.017Z,20.3
2017-03-20T09:12:29.092Z,20.3
2017-03-20T09:13:37.182Z,20.4
2017-03-20T09:14:45.263Z,20.3
2017-03-20T09:15:53.344Z,20.4
2017-03-20T09:17:01.430Z,20.3
2017-03-20T09:18:09.526Z,20.2
2017-03-20T09:19:17.610Z,20.3
2017-03-20T09:20:25.692Z,20.3
2017-03-20T09:21:33.781Z,20.3
2017-03-20T09:22:41.868Z,20.3
2017-03-20T09:23:49.951Z,20.3
2017-03-20T09:24:58.033Z,20.3
2017-03-20T09:26:06.121Z,20.3
2017-03-20T09:27:14.210Z,20.3
2017-03-20T09:28:22.293Z,20.2
2017-03-20T09:29:30.383Z,20.2
2017-03-20T09:30:38.467Z,20.2
2017-03-20T09:31:46.549Z,20.3
2017-03-20T09:32:54.637Z,20.3
2017-03-20T09:34:02.725Z,20.2
2017-03-20T09:35:10.811Z,20.2
2017-03-20T09:36:18.895Z,20.3
2017-03-20T09:37:26.983Z,20.3
2017-03-20T09:38:35.066Z,20.3
2017-03-20T09:39:43.150Z,20.3
2017-03-20T09:40:51.235Z,20.3
2017-03-20T09:41:59.322Z,20.2
2017-03-20T09:43:07.404Z,20.3
2017-03-20T09:44:15.492Z,20.3
2017-03-20T09:45:23.579Z,20.3
2017-03-20T09:46:31.663Z,20.2
2017-03-20T09:47:39.749Z,20.3
2017-03-20T09:48:47.832Z,20.3
2017-03-20T09:49:55.922Z,20.3
2017-03-20T09:51:04.010Z,20.3
2017-03-20T09:52:12.093Z,20.3
2017-03-20T09:53:20.181Z,20.3
2017-03-20T09:54:28.265Z,20.3
2017-03-20T09:55:36.347Z,20.2
2017-03-20T09:56:44.433Z,20.3
2017-03-20T09:57:52.521Z,20.3
2017-03-20T09:59:00.606Z,20.2
2017-03-20T10:00:08.690Z,20.2
2017-03-20T10:01:16.777Z,20.3
2017-03-20T10:02:24.862Z,20.2
2017-03-20T10:03:32.948Z,20.3
2017-03-20T10:04:41.032Z,20.3
2017-03-20T10:05:49.119Z,20.3
2017-03-20T10:06:57.202Z,20.3
2017-03-20T10:08:05.285Z,20.3
2017-03-20T10:09:13.374Z,20.3
2017-03-20T10:10:21.460Z,20.3
2017-03-20T10:11:29.546Z,20.3
2017-03-20T10:12:37.632Z,20.3
2017-03-20T10:13:45.718Z,20.4
2017-03-20T10:14:53.805Z,20.3
2017-03-20T10:16:01.886Z,20.4
2017-03-20T10:17:09.976Z,20.4
2017-03-20T10:18:18.064Z,20.4
2017-03-20T10:19:26.148Z,20.4
2017-03-20T10:20:34.234Z,20.3
2017-03-20T10:21:42.316Z,20.4
2017-03-20T10:22:50.400Z,20.4
2017-03-20T10:23:58.487Z,20.4
2017-03-20T10:25:06.581Z,20.4
2017-03-20T10:26:14.657Z,20.4
2017-03-20T10:27:22.740Z,20.4
2017-03-20T10:28:30.832Z,20.3
2017-03-20T10:29:38.915Z,20.4
2017-03-20T10:30:46.999Z,20.3
2017-03-20T10:31:55.080Z,20.4
2017-03-20T10:33:03.171Z,20.4
2017-03-20T10:34:11.255Z,20.3
2017-03-20T10:35:19.340Z,20.3
2017-03-20T10:36:27.424Z,20.4
2017-03-20T10:37:35.521Z,20.4
2017-03-20T10:38:43.604Z,20.3
2017-03-20T10:39:51.686Z,20.4
2017-03-20T10:40:59.779Z,20.4
2017-03-20T10:42:07.857Z,20.3
2017-03-20T10:43:15.942Z,20.4
2017-03-20T10:44:24.029Z,20.4
2017-03-20T10:45:32.114Z,20.4
2017-03-20T10:46:40.197Z,20.3
2017-03-20T10:47:48.280Z,20.4
2017-03-20T10:48:56.371Z,20.4
2017-03-20T10:50:04.455Z,20.3
2017-03-20T10:51:12.537Z,20.4
2017-03-20T10:52:20.630Z,20.4
2017-03-20T10:53:28.762Z,20.4
2017-03-20T10:54:36.804Z,20.4
2017-03-20T10:55:44.883Z,20.3
2017-03-20T10:56:52.973Z,20.4
2017-03-20T10:58:01.059Z,20.5
2017-03-20T10:59:09.141Z,20.5
2017-03-20T11:00:17.230Z,20.5
2017-03-20T11:01:25.318Z,20.4
2017-03-20T11:02:33.398Z,20.3
2017-03-20T11:03:41.494Z,20.5
2017-03-20T11:04:49.575Z,20.5
2017-03-20T11:05:57.654Z,20.5
2017-03-20T11:07:05.739Z,20.5
2017-03-20T11:08:13.828Z,20.4
2017-03-20T11:09:21.919Z,20.4
2017-03-20T11:10:29.999Z,20.4
2017-03-20T11:11:38.096Z,20.5
2017-03-20T11:12:46.175Z,20.5
2017-03-20T11:13:54.260Z,20.5
2017-03-20T11:15:02.343Z,20.5
2017-03-20T11:16:10.435Z,20.4
2017-03-20T11:17:18.525Z,20.5
2017-03-20T11:18:26.613Z,20.5
2017-03-20T11:19:34.702Z,20.5
2017-03-20T11:20:42.792Z,20.4
2017-03-20T11:21:50.874Z,20.5
2017-03-20T11:22:58.955Z,20.3
2017-03-20T11:24:07.046Z,20.4
2017-03-20T11:25:15.131Z,20.6
2017-03-20T11:26:23.218Z,20.4
2017-03-20T11:27:31.307Z,20.3
2017-03-20T11:28:39.400Z,20.4
2017-03-20T11:29:47.477Z,20.5
2017-03-20T11:30:55.570Z,20.3
2017-03-20T11:32:03.654Z,20.5
2017-03-20T11:33:11.740Z,20.5
2017-03-20T11:34:19.819Z,20.4
2017-03-20T11:35:27.909Z,20.4
2017-03-20T11:36:35.995Z,20.5
2017-03-20T11:37:44.077Z,20.5
2017-03-20T11:38:52.158Z,20.3
2017-03-20T11:40:00.301Z,20.5
2017-03-20T11:41:08.332Z,20.5
2017-03-20T11:42:16.420Z,20.5
2017-03-20T11:43:24.510Z,20.5
2017-03-20T11:44:32.593Z,20.5
2017-03-20T11:45:40.680Z,20.5
2017-03-20T11:46:48.764Z,20.5
2017-03-20T11:47:56.855Z,20.4
2017-03-20T11:49:04.935Z,20.4
2017-03-20T11:50:13.016Z,20.4
2017-03-20T11:51:21.107Z,20.5
2017-03-20T11:52:29.196Z,20.4
2017-03-20T11:53:37.277Z,20.5
2017-03-20T11:54:45.369Z,20.5
2017-03-20T11:55:53.451Z,20.5
2017-03-20T11:57:01.592Z,20.5
2017-03-20T11:58:09.622Z,20.5
2017-03-20T11:59:17.712Z,20.5
2017-03-20T12:00:25.794Z,20.5
2017-03-20T12:01:33.879Z,20.5
2017-03-20T12:02:41.965Z,20.5
2017-03-20T12:03:50.048Z,20.5
2017-03-20T12:04:58.134Z,20.5
2017-03-20T12:06:06.217Z,20.4
2017-03-20T12:07:14.306Z,20.5
2017-03-20T12:08:22.404Z,20.4
2017-03-20T12:09:30.479Z,20.5
2017-03-20T12:10:38.568Z,20.4
2017-03-20T12:11:46.654Z,20.5
2017-03-20T12:12:54.745Z,20.5
2017-03-20T12:14:02.836Z,20.5
2017-03-20T12:15:10.923Z,20.5
2017-03-20T12:16:19.011Z,20.5
2017-03-20T12:17:27.090Z,20.4
2017-03-20T12:18:35.182Z,20.3
2017-03-20T12:19:43.265Z,20.4
2017-03-20T12:20:51.350Z,20.5
2017-03-20T12:21:59.433Z,20.3
2017-03-20T12:23:07.520Z,20.5
2017-03-20T12:24:15.609Z,20.5
2017-03-20T12:25:23.694Z,20.4
2017-03-20T12:26:31.781Z,20.5
2017-03-20T12:27:39.872Z,20.5
2017-03-20T12:28:47.960Z,20.5
2017-03-20T12:29:56.042Z,20.5
2017-03-20T12:31:04.137Z,20.5
2017-03-20T12:32:12.222Z,20.5
2017-03-20T12:33:20.306Z,20.3
2017-03-20T12:34:28.392Z,20.5
2017-03-20T12:35:36.481Z,20.5
2017-03-20T12:36:44.568Z,20.5
2017-03-20T12:37:52.654Z,20.4
2017-03-20T12:39:00.739Z,20.4
2017-03-20T12:40:08.831Z,20.5
2017-03-20T12:41:16.911Z,20.5
2017-03-20T12:42:24.998Z,20.4
2017-03-20T12:43:33.085Z,20.4
2017-03-20T12:44:41.167Z,20.5
2017-03-20T12:45:49.251Z,20.4
2017-03-20T12:46:57.341Z,20.5
2017-03-20T12:48:05.427Z,20.4
2017-03-20T12:49:13.508Z,20.5
2017-03-20T12:50:21.599Z,20.5
2017-03-20T12:51:29.685Z,20.4
2017-03-20T12:52:37.773Z,20.5
2017-03-20T12:53:45.853Z,20.5
2017-03-20T12:54:53.943Z,20.5
2017-03-20T12:56:02.027Z,20.5
2017-03-20T12:57:10.112Z,20.5
2017-03-20T12:58:18.200Z,20.6
2017-03-20T12:59:26.285Z,20.5
2017-03-20T13:00:34.369Z,20.5
2017-03-20T13:01:42.455Z,20.5
2017-03-20T13:02:50.544Z,20.5
2017-03-20T13:03:58.633Z,20.5
2017-03-20T13:05:06.711Z,20.4
2017-03-20T13:06:14.801Z,20.4
2017-03-20T13:07:22.887Z,20.4
2017-03-20T13:08:30.969Z,20.5
2017-03-20T13:09:39.057Z,20.5
2017-03-20T13:10:47.144Z,20.5
2017-03-20T13:11:55.229Z,20.5
2017-03-20T13:13:03.315Z,20.5
2017-03-20T13:14:11.410Z,20.4
2017-03-20T13:15:19.486Z,20.6
2017-03-20T13:16:27.565Z,20.3
2017-03-20T13:17:35.657Z,20.5
2017-03-20T13:18:43.743Z,20.5
2017-03-20T13:19:51.825Z,20.5
2017-03-20T13:20:59.912Z,20.5
2017-03-20T13:22:07.999Z,20.5
2017-03-20T13:23:16.086Z,20.4
2017-03-20T13:24:24.172Z,20.4
2017-03-20T13:25:32.258Z,20.5
2017-03-20T13:26:40.347Z,20.3
2017-03-20T13:27:48.425Z,20.5
2017-03-20T13:28:56.513Z,20.4
2017-03-20T13:30:04.600Z,20.5
2017-03-20T13:31:12.694Z,20.4
2017-03-20T13:32:20.774Z,20.5
2017-03-20T13:33:28.864Z,20.5
2017-03-20T13:34:36.957Z,20.5
2017-03-20T13:35:45.039Z,20.5
2017-03-20T13:36:53.122Z,20.6
2017-03-20T13:38:01.208Z,20.5
2017-03-20T13:39:09.300Z,20.4
2017-03-20T13:40:17.383Z,20.5
2017-03-20T13:41:25.469Z,20.5
2017-03-20T13:42:33.557Z,20.4
2017-03-20T13:43:41.644Z,20.5
2017-03-20T13:44:49.732Z,20.5
2017-03-20T13:45:57.823Z,20.5
2017-03-20T13:47:05.910Z,20.5
2017-03-20T13:48:13.996Z,20.5
2017-03-20T13:49:22.082Z,20.5
2017-03-20T13:50:30.175Z,20.6
2017-03-20T13:51:38.256Z,20.5
2017-03-20T13:52:46.345Z,20.5
2017-03-20T13:53:54.435Z,20.4
2017-03-20T13:55:02.522Z,20.5
2017-03-20T13:56:10.604Z,20.4
2017-03-20T13:57:18.694Z,20.5
2017-03-20T13:58:26.779Z,20.3
2017-03-20T13:59:34.871Z,20.4
2017-03-20T14:00:42.953Z,20.4
2017-03-20T14:01:51.041Z,20.5
2017-03-20T14:02:59.127Z,20.5
2017-03-20T14:04:07.208Z,20.5
2017-03-20T14:05:15.295Z,20.5
2017-03-20T14:06:23.381Z,20.5
2017-03-20T14:07:31.468Z,20.5
2017-03-20T14:08:39.553Z,20.4
2017-03-20T14:09:47.641Z,20.6
2017-03-20T14:10:55.730Z,20.5
2017-03-20T14:12:03.815Z,20.6
2017-03-20T14:13:11.904Z,20.6
2017-03-20T14:14:20.052Z,20.5
2017-03-20T14:15:28.071Z,20.5
2017-03-20T14:16:36.158Z,20.5
2017-03-20T14:17:44.245Z,20.6
2017-03-20T14:18:52.326Z,20.6
2017-03-20T14:20:00.412Z,20.5
2017-03-20T14:21:08.500Z,20.5
2017-03-20T14:22:16.586Z,20.5
2017-03-20T14:23:24.673Z,20.5
2017-03-20T14:24:32.759Z,20.5
2017-03-20T14:25:40.845Z,20.5
2017-03-20T14:26:48.928Z,20.5
2017-03-20T14:27:57.016Z,20.5
2017-03-20T14:29:05.104Z,20.5
2017-03-20T14:30:13.188Z,20.5
2017-03-20T14:31:21.273Z,20.5
2017-03-20T14:32:29.360Z,20.5
2017-03-20T14:33:37.447Z,20.6
2017-03-20T14:34:45.536Z,20.6
2017-03-20T14:35:53.627Z,20.5
2017-03-20T14:37:01.706Z,20.5
2017-03-20T14:38:09.793Z,20.5
2017-03-20T14:39:17.881Z,20.5
2017-03-20T14:40:25.962Z,20.5
2017-03-20T14:41:34.051Z,20.5
2017-03-20T14:42:42.200Z,20.6
2017-03-20T14:43:50.225Z,20.5
2017-03-20T14:44:58.310Z,20.5
2017-03-20T14:46:06.396Z,20.6
2017-03-20T14:47:14.478Z,20.6
2017-03-20T14:48:22.577Z,20.5
2017-03-20T14:49:30.655Z,20.5
2017-03-20T14:50:38.739Z,20.5
2017-03-20T14:51:46.821Z,20.6
2017-03-20T14:52:54.911Z,20.5
2017-03-20T14:54:02.995Z,20.5
2017-03-20T14:55:11.080Z,20.6
2017-03-20T14:56:19.172Z,20.6
2017-03-20T14:57:27.258Z,20.5
2017-03-20T14:58:35.342Z,20.5
2017-03-20T14:59:43.506Z,20.6
2017-03-20T15:00:51.512Z,20.5
2017-03-20T15:01:59.597Z,20.5
2017-03-20T15:03:07.680Z,20.5
2017-03-20T15:04:15.773Z,20.5
2017-03-20T15:05:23.863Z,20.5
2017-03-20T15:06:31.950Z,20.5